Ana Sayfa
METAR-TAF:

METAR-TAF

Havaalanları :

Ciudad Obregón, Meksika

Enlem: 27-24N, Boylam: 109-50W, yükseklik: 62 m

Güncel hava durumu gözlemi

Rapor saat 01:44 UTC de 4 saat ve 44 dakika önce yapıldı.
Rüzgar güneybatıdan 7 kt
Sıcaklık 32°C
Nem 34%
Basınç 1006 hPa
Görüş mesafesi: 16.1 km
Açık gökyüzü

METAR: MMCN 150144Z 23007KT 10SM SKC 32/14 A2971 RMK HZY

Saat: 23:28 (06:28 UTC)

Tahmin

Rapor saat 05:39 UTC de 49 dakika önce yapıldı.
Ayın 15'si saat 06 UTC'den ayın 16'si saat 06 UTC'ye kadar geçerli Tahmin
Rüzgar batıdan 5 kt
Görüş mesafesi: 10 km
Açık gökyüzü
Ayın 15'si saat 1700 UTC'den
Rüzgar güneydan 10 kt
Görüş mesafesi: 10 km
13000 ft yükseklikte parçalı bulutlu
Ayın 16'si saat 0000 UTC'den
Rüzgar güney/güneybatıdan 10 kt
Görüş mesafesi: 10 km
10000 ft yükseklikte parçalı bulutlu

TAF: MMCN 150539Z 1506/1606 28005KT P6SM SKC FM151700 18010KT P6SM SCT130 FM160000 20010KT P6SM SCT100

4.000'den fazla havaalanı için hava durumu gözlemleri ve tahminleri (METAR ve TAF raporları).

Kullanılabilir istasyonlar harita üzerinde sarı ve kırmızı noktalarla gösterilir.

İstasyonun adını görmek için fareyi noktanın üzerinde gezdirin.

Sonrasında hava gözlem ve tahminlerini görmek için tıklayın.

Haritayı değiştirmek için: yaklaştırmak için siyah artı işaretli yeşil düğmeye ve uzaklaştırmak için de eksi işaretli düğmeye hızla tıklayın; bitişik haritalar için yeşil okları kullanın.


METAR-TAF: